New Market, Pennsylvania
Current Conditions -  °F | °C
As of 6:56 PM on Wednesday 28 Jan 2015 (Local Time) from KCXY Reporting Station
Clear Clear  
Wind Chill: 18°   Ceiling: Unl
Heat Index: 26°   Visibility: 10mi
Dew Point:   Wind: 7mph
Humidity: 43%   Direction: 230°SW
Pressure: 30.27"   Gusts: NA
Location:  40.2034°N, 76.87°W
Report Text: KCXY 282356Z 23006KT 10SM CLR M03/M14 A3027 RMK AO2 SLP257 T10331144 10011 21039 53020
Loading
Personal Weather Stations






























Interactive Weather Map New forecast layout! Learn more

10-Day Weather Forecast

Advertisements
Track Severe Weather on mobile